createdAt,value
2018-11-02T00:01:05.814Z,95.55
2018-11-02T00:03:33.095Z,97.24
2018-11-02T00:06:00.317Z,97.54
2018-11-02T00:08:27.618Z,98.41
2018-11-02T00:10:54.828Z,98.66
2018-11-02T00:13:22.123Z,98.19
2018-11-02T00:15:49.429Z,99.30
2018-11-02T00:18:16.722Z,99.34
2018-11-02T00:20:43.958Z,99.74
2018-11-02T00:23:11.237Z,99.74
2018-11-02T00:25:38.475Z,100.00
2018-11-02T00:28:05.857Z,100.00
2018-11-02T00:30:33.125Z,100.00
2018-11-02T00:33:00.393Z,100.00
2018-11-02T00:35:27.743Z,100.00
2018-11-02T00:37:54.965Z,100.00
2018-11-02T00:40:22.145Z,100.00
2018-11-02T00:42:49.338Z,100.00
2018-11-02T00:45:16.612Z,100.00
2018-11-02T00:47:43.925Z,100.00
2018-11-02T00:50:11.929Z,100.00
2018-11-02T00:52:39.176Z,100.00
2018-11-02T00:55:06.989Z,100.00
2018-11-02T00:57:34.255Z,100.00
2018-11-02T01:00:01.527Z,100.00
2018-11-02T01:02:28.787Z,100.00
2018-11-02T01:04:56.036Z,100.00
2018-11-02T01:07:23.302Z,100.00
2018-11-02T01:09:50.531Z,100.00
2018-11-02T01:12:17.804Z,100.00
2018-11-02T01:14:45.040Z,100.00
2018-11-02T01:17:12.349Z,100.00
2018-11-02T01:19:39.647Z,100.00
2018-11-02T01:22:06.983Z,100.00
2018-11-02T01:24:34.226Z,100.00
2018-11-02T01:27:01.517Z,100.00
2018-11-02T01:29:29.189Z,100.00
2018-11-02T01:31:56.703Z,99.83
2018-11-02T01:34:24.010Z,100.00
2018-11-02T01:36:51.152Z,100.00
2018-11-02T01:39:18.403Z,100.00
2018-11-02T01:41:45.708Z,100.00
2018-11-02T01:44:12.945Z,100.00
2018-11-02T01:46:40.219Z,100.00
2018-11-02T01:49:07.643Z,100.00
2018-11-02T01:51:34.923Z,99.52
2018-11-02T01:54:02.201Z,99.26
2018-11-02T01:56:29.525Z,98.57
2018-11-02T01:59:00.003Z,98.42
2018-11-02T02:01:27.340Z,98.34
2018-11-02T02:03:54.681Z,98.66
2018-11-02T02:06:21.969Z,98.63
2018-11-02T02:08:49.213Z,98.38
2018-11-02T02:11:16.490Z,97.83
2018-11-02T02:13:43.774Z,98.25
2018-11-02T02:16:11.040Z,98.40
2018-11-02T02:18:38.258Z,98.76
2018-11-02T02:21:05.592Z,99.24
2018-11-02T02:23:32.826Z,98.72
2018-11-02T02:26:00.158Z,99.08
2018-11-02T02:28:27.492Z,99.05
2018-11-02T02:30:54.782Z,99.17
2018-11-02T02:33:22.082Z,99.34
2018-11-02T02:35:49.371Z,98.47
2018-11-02T02:38:16.577Z,99.04
2018-11-02T02:40:43.938Z,98.43
2018-11-02T02:43:11.216Z,98.13
2018-11-02T02:45:38.883Z,97.07
2018-11-02T02:48:06.070Z,98.32
2018-11-02T02:50:33.353Z,97.90
2018-11-02T02:53:00.595Z,98.83
2018-11-02T02:55:27.891Z,98.62
2018-11-02T02:57:55.195Z,99.36
2018-11-02T03:00:22.420Z,99.59
2018-11-02T03:02:49.648Z,99.74
2018-11-02T03:05:16.904Z,99.70
2018-11-02T03:07:44.190Z,100.00
2018-11-02T03:10:11.490Z,99.58
2018-11-02T03:12:38.946Z,100.00
2018-11-02T03:15:06.515Z,100.00
2018-11-02T03:17:34.063Z,100.00
2018-11-02T03:20:01.299Z,100.00
2018-11-02T03:22:28.625Z,100.00
2018-11-02T03:24:55.831Z,100.00
2018-11-02T03:27:23.096Z,100.00
2018-11-02T03:29:50.322Z,100.00
2018-11-02T03:32:17.566Z,100.00
2018-11-02T03:34:44.808Z,100.00
2018-11-02T03:37:12.048Z,100.00
2018-11-02T03:39:39.382Z,100.00
2018-11-02T03:42:06.902Z,100.00
2018-11-02T03:44:34.214Z,100.00
2018-11-02T03:47:01.397Z,100.00
2018-11-02T03:49:28.657Z,98.78
2018-11-02T03:51:55.916Z,99.15
2018-11-02T03:54:23.205Z,99.31
2018-11-02T03:56:50.791Z,99.59
2018-11-02T03:59:17.980Z,99.65
2018-11-02T04:01:45.798Z,99.66
2018-11-02T04:04:13.019Z,98.67
2018-11-02T04:06:40.417Z,98.00
2018-11-02T04:09:08.264Z,98.02
2018-11-02T04:11:35.599Z,99.11
2018-11-02T04:14:02.990Z,98.08
2018-11-02T04:16:30.277Z,98.44
2018-11-02T04:18:57.530Z,98.79
2018-11-02T04:21:24.807Z,98.94
2018-11-02T04:23:52.028Z,98.30
2018-11-02T04:26:19.259Z,97.86
2018-11-02T04:28:46.508Z,98.24
2018-11-02T04:31:13.799Z,97.91
2018-11-02T04:33:41.079Z,97.44
2018-11-02T04:36:08.374Z,97.18
2018-11-02T04:38:35.666Z,97.54
2018-11-02T04:41:02.925Z,97.08
2018-11-02T04:43:30.179Z,97.09
2018-11-02T04:45:57.391Z,96.61
2018-11-02T04:48:24.693Z,97.31
2018-11-02T04:50:52.035Z,96.57
2018-11-02T04:53:19.296Z,97.00
2018-11-02T04:55:46.551Z,96.58
2018-11-02T04:58:13.889Z,97.07
2018-11-02T05:00:41.111Z,97.51
2018-11-02T05:03:08.394Z,97.69
2018-11-02T05:05:35.654Z,97.59
2018-11-02T05:08:02.908Z,96.69
2018-11-02T05:10:30.188Z,96.51
2018-11-02T05:12:57.466Z,97.51
2018-11-02T05:15:24.732Z,96.82
2018-11-02T05:17:51.999Z,95.77
2018-11-02T05:20:19.299Z,96.22
2018-11-02T05:22:46.580Z,96.15
2018-11-02T05:25:13.889Z,97.42
2018-11-02T05:27:41.172Z,97.18
2018-11-02T05:30:09.262Z,97.32
2018-11-02T05:32:36.585Z,97.24
2018-11-02T05:35:03.916Z,97.22
2018-11-02T05:37:31.239Z,97.09
2018-11-02T05:39:58.553Z,96.73
2018-11-02T05:42:25.771Z,96.61
2018-11-02T05:44:53.021Z,97.01
2018-11-02T05:47:20.393Z,96.67
2018-11-02T05:49:47.657Z,97.35
2018-11-02T05:52:15.027Z,97.84
2018-11-02T05:54:42.302Z,97.57
2018-11-02T05:57:09.824Z,97.21
2018-11-02T05:59:37.083Z,97.47
2018-11-02T06:02:04.476Z,97.97
2018-11-02T06:04:31.725Z,98.01
2018-11-02T06:06:59.018Z,97.98
2018-11-02T06:09:26.410Z,97.64
2018-11-02T06:11:53.708Z,97.50
2018-11-02T06:14:20.943Z,97.15
2018-11-02T06:16:48.294Z,97.47
2018-11-02T06:19:16.303Z,97.04
2018-11-02T06:21:44.080Z,97.18
2018-11-02T06:24:11.324Z,97.32
2018-11-02T06:26:38.602Z,97.63
2018-11-02T06:29:05.838Z,97.09
2018-11-02T06:31:33.070Z,96.99
2018-11-02T06:34:00.324Z,96.55
2018-11-02T06:36:27.739Z,96.76
2018-11-02T06:38:55.147Z,97.71
2018-11-02T06:41:22.374Z,97.55
2018-11-02T06:43:49.815Z,97.40
2018-11-02T06:46:17.186Z,96.98
2018-11-02T06:48:44.506Z,97.00
2018-11-02T06:51:11.815Z,97.46
2018-11-02T06:53:39.075Z,96.82
2018-11-02T06:56:06.443Z,96.54
2018-11-02T06:58:33.893Z,96.47
2018-11-02T07:01:01.251Z,97.16
2018-11-02T07:03:28.498Z,97.40
2018-11-02T07:05:56.125Z,97.08
2018-11-02T07:08:23.672Z,97.46
2018-11-02T07:10:51.189Z,97.64
2018-11-02T07:13:18.478Z,97.42
2018-11-02T07:15:46.155Z,96.80
2018-11-02T07:18:13.450Z,97.37
2018-11-02T07:20:40.712Z,95.57
2018-11-02T07:23:08.028Z,95.40
2018-11-02T07:25:35.384Z,95.69
2018-11-02T07:28:02.617Z,94.71
2018-11-02T07:30:29.963Z,93.39
2018-11-02T07:32:57.237Z,92.95
2018-11-02T07:35:24.481Z,93.15
2018-11-02T07:37:51.743Z,93.16
2018-11-02T07:40:18.967Z,93.43
2018-11-02T07:42:46.167Z,91.13
2018-11-02T07:45:13.410Z,91.76
2018-11-02T07:47:40.794Z,92.31
2018-11-02T07:50:09.444Z,92.59
2018-11-02T07:52:36.745Z,92.90
2018-11-02T07:55:05.068Z,93.01
2018-11-02T07:57:32.321Z,92.79
2018-11-02T07:59:59.605Z,92.00
2018-11-02T08:02:26.860Z,90.80
2018-11-02T08:04:54.138Z,89.79
2018-11-02T08:07:21.388Z,88.24
2018-11-02T08:09:48.627Z,80.63
2018-11-02T08:12:15.910Z,78.13
2018-11-02T08:17:07.994Z,72.34
2018-11-02T08:19:35.257Z,67.02
2018-11-02T08:22:02.506Z,64.56
2018-11-02T08:24:29.813Z,60.23
2018-11-02T08:26:57.051Z,58.16
2018-11-02T08:29:24.343Z,55.55
2018-11-02T08:31:51.677Z,53.50
2018-11-02T08:34:18.868Z,53.05
2018-11-02T08:36:46.151Z,50.31
2018-11-02T08:39:13.461Z,49.39
2018-11-02T08:41:40.933Z,45.37
2018-11-02T08:44:08.512Z,49.91
2018-11-02T08:46:35.968Z,53.40
2018-11-02T08:49:03.284Z,58.06
2018-11-02T08:51:30.547Z,60.17
2018-11-02T08:53:57.970Z,61.12
2018-11-02T08:56:25.227Z,60.89
2018-11-02T08:58:52.797Z,68.51
2018-11-02T09:01:19.887Z,70.96
2018-11-02T09:03:47.141Z,73.56
2018-11-02T09:06:14.416Z,71.17
2018-11-02T09:08:41.632Z,72.53
2018-11-02T09:11:08.864Z,72.83
2018-11-02T09:13:36.128Z,69.74
2018-11-02T09:16:03.373Z,64.03
2018-11-02T09:18:30.671Z,61.98
2018-11-02T09:20:57.885Z,63.10
2018-11-02T09:23:25.177Z,61.33
2018-11-02T09:25:52.403Z,60.86
2018-11-02T09:28:19.755Z,58.72
2018-11-02T09:30:47.063Z,57.99
2018-11-02T09:33:14.364Z,56.89
2018-11-02T09:35:41.602Z,57.05
2018-11-02T09:38:08.864Z,57.23
2018-11-02T09:40:36.211Z,55.91
2018-11-02T09:43:03.447Z,57.70
2018-11-02T09:45:33.069Z,60.01
2018-11-02T09:48:00.473Z,63.75
2018-11-02T09:50:27.830Z,65.69
2018-11-02T09:52:55.143Z,66.45
2018-11-02T09:55:22.485Z,62.91
2018-11-02T09:57:49.937Z,58.79
2018-11-02T10:00:17.224Z,55.55
2018-11-02T10:02:44.453Z,52.59
2018-11-02T10:05:12.293Z,48.85
2018-11-02T10:07:40.362Z,47.84
2018-11-02T10:10:09.024Z,49.08
2018-11-02T10:12:36.526Z,52.83
2018-11-02T10:15:04.405Z,54.76
2018-11-02T10:17:31.786Z,53.04
2018-11-02T10:19:59.059Z,55.70
2018-11-02T10:22:26.317Z,50.54
2018-11-02T10:24:53.674Z,44.83
2018-11-02T10:27:20.988Z,45.09
2018-11-02T10:29:48.269Z,48.88
2018-11-02T10:32:15.712Z,52.35
2018-11-02T10:34:43.015Z,54.55
2018-11-02T10:37:10.268Z,53.42
2018-11-02T10:39:37.724Z,56.26
2018-11-02T10:42:07.388Z,57.07
2018-11-02T10:44:36.779Z,53.47
2018-11-02T10:47:05.366Z,52.41
2018-11-02T10:49:32.665Z,53.99
2018-11-02T10:51:59.861Z,56.30
2018-11-02T10:54:27.176Z,58.62
2018-11-02T10:56:54.466Z,58.70
2018-11-02T10:59:21.720Z,61.66
2018-11-02T11:01:55.601Z,61.78
2018-11-02T11:04:22.850Z,63.54
2018-11-02T11:06:50.188Z,62.84
2018-11-02T11:09:17.384Z,63.98
2018-11-02T11:11:44.824Z,65.05
2018-11-02T11:14:11.941Z,63.91
2018-11-02T11:16:39.203Z,64.80
2018-11-02T11:19:07.396Z,64.93
2018-11-02T11:21:34.784Z,65.17
2018-11-02T11:24:02.078Z,64.63
2018-11-02T11:26:29.330Z,64.35
2018-11-02T11:28:56.622Z,63.79
2018-11-02T11:31:23.890Z,61.56
2018-11-02T11:33:51.160Z,63.46
2018-11-02T11:36:18.458Z,64.66
2018-11-02T11:38:45.762Z,61.50
2018-11-02T11:41:13.037Z,62.60
2018-11-02T11:43:40.362Z,59.30
2018-11-02T11:46:07.673Z,60.27
2018-11-02T11:48:34.976Z,60.44
2018-11-02T11:51:02.211Z,62.33
2018-11-02T11:53:29.441Z,60.90
2018-11-02T11:58:29.845Z,61.54
2018-11-02T12:00:57.156Z,62.86
2018-11-02T12:10:26.185Z,65.19
2018-11-02T12:12:53.631Z,66.35
2018-11-02T12:15:21.828Z,64.88
2018-11-02T12:17:49.670Z,64.93
2018-11-02T12:20:23.163Z,67.14
2018-11-02T12:22:52.640Z,67.16
2018-11-02T12:25:19.934Z,67.14
2018-11-02T12:27:47.231Z,64.47
2018-11-02T12:32:40.487Z,67.27
2018-11-02T12:35:09.292Z,67.34
2018-11-02T12:37:36.628Z,64.33
2018-11-02T12:40:05.380Z,66.81
2018-11-02T12:42:32.632Z,67.71
2018-11-02T12:44:59.891Z,66.75
2018-11-02T12:47:27.286Z,66.80
2018-11-02T12:49:54.718Z,67.51
2018-11-02T12:52:21.787Z,67.59
2018-11-02T12:54:49.049Z,67.87
2018-11-02T12:57:16.676Z,68.31
2018-11-02T12:59:43.924Z,68.59
2018-11-02T13:02:11.148Z,67.80
2018-11-02T13:04:38.414Z,67.63
2018-11-02T13:07:05.771Z,67.96
2018-11-02T13:09:33.036Z,68.08
2018-11-02T13:12:00.205Z,66.99
2018-11-02T13:14:27.449Z,68.35
2018-11-02T13:16:54.690Z,67.23
2018-11-02T13:19:21.927Z,67.86
2018-11-02T13:21:49.269Z,66.16
2018-11-02T13:24:16.785Z,68.59
2018-11-02T13:26:44.595Z,69.81
2018-11-02T13:29:11.963Z,70.87
2018-11-02T13:31:39.209Z,70.20
2018-11-02T13:34:06.428Z,70.51
2018-11-02T13:36:33.896Z,71.56
2018-11-02T13:39:01.060Z,70.72
2018-11-02T13:41:28.316Z,70.57
2018-11-02T13:43:55.610Z,71.11
2018-11-02T13:46:22.896Z,71.09
2018-11-02T13:48:50.138Z,72.52
2018-11-02T13:51:17.380Z,72.56
2018-11-02T13:53:44.680Z,71.40
2018-11-02T13:56:11.925Z,72.36
2018-11-02T13:58:39.175Z,72.08
2018-11-02T14:01:06.527Z,72.38
2018-11-02T14:03:33.696Z,72.72
2018-11-02T14:06:01.156Z,72.86
2018-11-02T14:08:28.397Z,73.52
2018-11-02T14:10:55.671Z,72.42
2018-11-02T14:13:22.977Z,72.55
2018-11-02T14:15:50.223Z,71.70
2018-11-02T14:18:17.501Z,71.98
2018-11-02T14:20:44.769Z,73.63
2018-11-02T14:23:12.044Z,73.09
2018-11-02T14:25:39.344Z,72.12
2018-11-02T14:28:06.641Z,73.45
2018-11-02T14:30:33.901Z,73.99
2018-11-02T14:33:01.162Z,73.27
2018-11-02T14:35:28.440Z,73.41
2018-11-02T14:37:55.669Z,72.51
2018-11-02T14:40:22.862Z,72.53
2018-11-02T14:42:50.201Z,73.61
2018-11-02T14:45:17.482Z,73.34
2018-11-02T14:47:45.386Z,74.15
2018-11-02T14:50:12.665Z,73.44
2018-11-02T14:52:39.943Z,73.34
2018-11-02T14:55:07.427Z,73.08
2018-11-02T14:57:34.679Z,73.32
2018-11-02T15:00:01.930Z,74.52
2018-11-02T15:02:29.202Z,73.83
2018-11-02T15:04:56.439Z,73.65
2018-11-02T15:07:24.639Z,73.62
2018-11-02T15:09:51.874Z,73.62
2018-11-02T15:12:19.179Z,73.73
2018-11-02T15:14:46.471Z,74.29
2018-11-02T15:17:14.267Z,74.09
2018-11-02T15:19:41.867Z,74.08
2018-11-02T15:22:09.105Z,75.01
2018-11-02T15:24:36.336Z,75.56
2018-11-02T15:27:03.588Z,76.32
2018-11-02T15:29:30.855Z,77.25
2018-11-02T15:31:58.073Z,77.50
2018-11-02T15:34:25.958Z,78.00
2018-11-02T15:36:53.155Z,77.83
2018-11-02T15:39:20.431Z,77.65
2018-11-02T15:41:47.615Z,77.78
2018-11-02T15:44:14.911Z,77.90
2018-11-02T15:46:42.106Z,78.64
2018-11-02T15:49:09.461Z,78.74
2018-11-02T15:51:36.737Z,79.24
2018-11-02T15:54:04.265Z,80.01
2018-11-02T15:56:31.488Z,78.65
2018-11-02T15:58:58.750Z,79.14
2018-11-02T16:01:26.027Z,79.07
2018-11-02T16:03:53.335Z,80.16
2018-11-02T16:06:20.593Z,79.64
2018-11-02T16:08:47.956Z,79.80
2018-11-02T16:11:15.254Z,80.17
2018-11-02T16:13:42.604Z,80.58
2018-11-02T16:16:09.851Z,80.35
2018-11-02T16:18:37.183Z,80.63
2018-11-02T16:21:04.665Z,81.42
2018-11-02T16:23:31.974Z,80.94
2018-11-02T16:25:59.222Z,81.05
2018-11-02T16:28:26.526Z,81.30
2018-11-02T16:30:53.742Z,82.37
2018-11-02T16:33:21.056Z,81.98
2018-11-02T16:35:48.292Z,83.28
2018-11-02T16:38:15.588Z,82.68
2018-11-02T16:40:42.951Z,83.82
2018-11-02T16:43:10.191Z,83.35
2018-11-02T16:45:38.003Z,82.57
2018-11-02T16:48:05.449Z,83.50
2018-11-02T16:50:32.621Z,83.32
2018-11-02T16:52:59.843Z,84.24
2018-11-02T16:55:27.116Z,84.63
2018-11-02T16:57:54.543Z,84.66
2018-11-02T17:00:22.067Z,84.45
2018-11-02T17:02:49.866Z,84.59
2018-11-02T17:05:17.674Z,84.41
2018-11-02T17:07:44.882Z,85.30
2018-11-02T17:10:13.202Z,84.92
2018-11-02T17:12:41.034Z,85.42
2018-11-02T17:15:08.709Z,85.92
2018-11-02T17:17:36.092Z,85.62
2018-11-02T17:20:04.062Z,86.16
2018-11-02T17:22:31.480Z,85.62
2018-11-02T17:24:58.707Z,85.42
2018-11-02T17:27:25.993Z,85.39
2018-11-02T17:29:53.279Z,85.87
2018-11-02T17:32:20.825Z,85.97
2018-11-02T17:34:48.161Z,86.37
2018-11-02T17:37:15.479Z,86.37
2018-11-02T17:39:42.746Z,85.93
2018-11-02T17:42:10.029Z,85.89
2018-11-02T17:44:37.308Z,85.95
2018-11-02T17:47:04.628Z,86.29
2018-11-02T17:49:31.852Z,86.24
2018-11-02T17:51:59.107Z,85.97
2018-11-02T17:54:26.349Z,86.30
2018-11-02T17:56:53.624Z,85.86
2018-11-02T17:59:20.910Z,85.86
2018-11-02T18:01:48.157Z,85.98
2018-11-02T18:04:15.461Z,86.55
2018-11-02T18:06:42.708Z,86.79
2018-11-02T18:09:10.583Z,86.73
2018-11-02T18:11:37.961Z,87.02
2018-11-02T18:14:05.251Z,87.12
2018-11-02T18:16:32.633Z,87.55
2018-11-02T18:18:59.914Z,88.00
2018-11-02T18:21:27.200Z,89.23
2018-11-02T18:23:54.440Z,88.50
2018-11-02T18:26:21.757Z,89.07
2018-11-02T18:28:48.968Z,88.73
2018-11-02T18:31:16.273Z,89.16
2018-11-02T18:33:44.240Z,88.96
2018-11-02T18:36:11.779Z,88.74
2018-11-02T18:38:38.936Z,88.10
2018-11-02T18:41:06.349Z,87.69
2018-11-02T18:43:33.742Z,87.63
2018-11-02T18:46:00.991Z,87.86
2018-11-02T18:48:28.474Z,88.36
2018-11-02T18:50:55.705Z,88.82
2018-11-02T18:53:22.919Z,88.06
2018-11-02T18:55:50.223Z,88.14
2018-11-02T18:58:17.569Z,87.72
2018-11-02T19:00:44.877Z,88.37
2018-11-02T19:03:12.166Z,88.72
2018-11-02T19:05:39.460Z,89.44
2018-11-02T19:08:06.686Z,89.45
2018-11-02T19:10:33.865Z,88.91
2018-11-02T19:13:01.157Z,89.09
2018-11-02T19:15:28.460Z,89.53
2018-11-02T19:17:55.754Z,88.80
2018-11-02T19:20:23.034Z,89.68
2018-11-02T19:22:50.288Z,88.82
2018-11-02T19:25:17.520Z,88.44
2018-11-02T19:27:45.369Z,88.43
2018-11-02T19:30:13.321Z,89.16
2018-11-02T19:32:40.634Z,89.18
2018-11-02T19:35:08.480Z,88.93
2018-11-02T19:37:35.597Z,88.67
2018-11-02T19:40:03.001Z,89.46
2018-11-02T19:42:30.272Z,89.31
2018-11-02T19:44:57.654Z,89.72
2018-11-02T19:47:29.525Z,90.49
2018-11-02T19:49:56.835Z,90.75
2018-11-02T19:52:24.154Z,90.17
2018-11-02T19:54:51.353Z,90.84
2018-11-02T19:57:18.778Z,90.57
2018-11-02T19:59:45.955Z,89.69
2018-11-02T20:02:13.201Z,88.81
2018-11-02T20:04:40.547Z,89.32
2018-11-02T20:07:07.829Z,89.93
2018-11-02T20:09:35.164Z,90.51
2018-11-02T20:12:02.301Z,90.23
2018-11-02T20:14:29.528Z,90.35
2018-11-02T20:16:56.760Z,90.21
2018-11-02T20:19:24.022Z,90.05
2018-11-02T20:21:51.254Z,90.48
2018-11-02T20:24:18.534Z,89.74
2018-11-02T20:26:45.788Z,89.80
2018-11-02T20:29:13.046Z,90.41
2018-11-02T20:31:40.530Z,89.61
2018-11-02T20:34:07.687Z,89.91
2018-11-02T20:36:35.008Z,89.99
2018-11-02T20:39:02.450Z,90.10
2018-11-02T20:41:29.667Z,90.19
2018-11-02T20:43:57.042Z,89.83
2018-11-02T20:46:24.363Z,89.91
2018-11-02T20:48:51.694Z,90.77
2018-11-02T20:51:18.846Z,90.84
2018-11-02T20:53:46.135Z,90.49
2018-11-02T20:56:13.567Z,89.52
2018-11-02T20:58:40.878Z,89.83
2018-11-02T21:01:08.200Z,89.64
2018-11-02T21:03:35.508Z,90.07
2018-11-02T21:06:02.757Z,90.08
2018-11-02T21:08:30.161Z,89.57
2018-11-02T21:10:57.270Z,89.90
2018-11-02T21:13:24.579Z,90.59
2018-11-02T21:15:51.887Z,90.51
2018-11-02T21:18:19.345Z,90.08
2018-11-02T21:20:46.681Z,90.20
2018-11-02T21:23:13.938Z,89.95
2018-11-02T21:25:41.221Z,89.66
2018-11-02T21:28:08.484Z,90.08
2018-11-02T21:30:35.751Z,89.51
2018-11-02T21:33:02.972Z,89.92
2018-11-02T21:35:30.298Z,89.86
2018-11-02T21:37:57.599Z,89.44
2018-11-02T21:40:25.415Z,88.81
2018-11-02T21:42:52.742Z,88.34
2018-11-02T21:45:21.204Z,89.11
2018-11-02T21:47:49.268Z,88.56
2018-11-02T21:50:16.876Z,88.10
2018-11-02T21:52:44.246Z,88.14
2018-11-02T21:55:11.503Z,88.76
2018-11-02T21:57:38.823Z,88.09
2018-11-02T22:00:08.139Z,88.66
2018-11-02T22:02:35.449Z,88.12
2018-11-02T22:05:02.853Z,88.88
2018-11-02T22:07:30.170Z,88.63
2018-11-02T22:09:57.326Z,89.23
2018-11-02T22:12:24.554Z,89.72
2018-11-02T22:14:51.822Z,89.14
2018-11-02T22:17:19.108Z,89.86
2018-11-02T22:19:46.440Z,90.12
2018-11-02T22:22:13.718Z,89.77
2018-11-02T22:24:41.054Z,89.87
2018-11-02T22:27:08.376Z,90.24
2018-11-02T22:29:35.561Z,91.01
2018-11-02T22:32:02.832Z,90.72
2018-11-02T22:34:30.132Z,90.84
2018-11-02T22:36:57.323Z,91.06
2018-11-02T22:39:24.580Z,90.46
2018-11-02T22:41:51.877Z,90.57
2018-11-02T22:44:19.094Z,91.02
2018-11-02T22:46:46.310Z,92.50
2018-11-02T22:49:13.562Z,91.41
2018-11-02T22:51:40.774Z,90.66
2018-11-02T22:54:08.175Z,91.28
2018-11-02T22:56:35.423Z,90.70
2018-11-02T22:59:02.660Z,90.96
2018-11-02T23:01:30.146Z,90.88
2018-11-02T23:03:59.110Z,91.34
2018-11-02T23:06:26.570Z,90.41
2018-11-02T23:08:54.447Z,90.33
2018-11-02T23:11:21.948Z,90.42
2018-11-02T23:13:49.186Z,90.24
2018-11-02T23:16:16.525Z,90.91
2018-11-02T23:18:43.753Z,91.04
2018-11-02T23:21:11.005Z,90.80
2018-11-02T23:23:38.233Z,90.01
2018-11-02T23:26:05.542Z,90.40
2018-11-02T23:28:32.818Z,89.91
2018-11-02T23:31:00.106Z,89.67
2018-11-02T23:33:27.390Z,89.89
2018-11-02T23:35:54.671Z,89.98
2018-11-02T23:38:21.978Z,90.58
2018-11-02T23:40:49.238Z,90.13
2018-11-02T23:43:16.517Z,90.33
2018-11-02T23:45:43.944Z,89.99
2018-11-02T23:48:16.283Z,89.42
2018-11-02T23:50:43.568Z,89.40
2018-11-02T23:53:10.884Z,88.95
2018-11-02T23:55:38.148Z,89.64
2018-11-02T23:58:05.591Z,89.40
